Santorini, Greece
Current Conditions -  °F | °C
As of 8:20 PM on Thursday 18 Dec 2014 (Local Time) from LGSR Reporting Station
Light Rain Light Rain  
Wind Chill: 57°   Ceiling: 2500
Heat Index: 57°   Visibility: 6mi
Dew Point: 54°   Wind: 3mph
Humidity: 88%   Direction: NA
Pressure: 30.06"   Gusts: NA
Location:  36.4°N, 25.46°E
Report Text: LGSR 181720Z VRB03KT 9000 -RA FEW018CB FEW020TCU BKN025 BKN080 14/12 Q1018
Loading
Personal Weather Stations






























Interactive Weather Map New forecast layout! Learn more

10-Day Weather Forecast

Advertisements
Track Severe Weather on mobile